createdAt,value
2022-08-17T17:35:28.397Z,19.18
2022-08-17T17:37:57.338Z,19.20
2022-08-17T17:40:25.417Z,19.24
2022-08-17T17:42:53.639Z,19.23
2022-08-17T17:45:23.318Z,19.22
2022-08-17T17:47:49.921Z,19.19
2022-08-17T17:50:17.965Z,19.17
2022-08-17T17:52:58.834Z,19.16
2022-08-17T17:55:30.814Z,19.14
2022-08-17T17:58:17.899Z,19.10
2022-08-17T18:00:49.274Z,18.97
2022-08-17T18:03:31.041Z,18.92
2022-08-17T18:06:10.341Z,18.87
2022-08-17T18:08:46.063Z,18.84
2022-08-17T18:11:24.102Z,18.81
2022-08-17T18:14:17.461Z,18.76
2022-08-17T18:16:44.295Z,18.68
2022-08-17T18:19:21.486Z,18.68
2022-08-17T18:21:52.221Z,18.66
2022-08-17T18:24:28.728Z,18.70
2022-08-17T18:26:56.635Z,18.74
2022-08-17T18:29:32.198Z,18.77
2022-08-17T18:32:18.115Z,18.79
2022-08-17T18:34:49.302Z,18.76
2022-08-17T18:37:29.290Z,18.73
2022-08-17T18:39:55.763Z,18.66
2022-08-17T18:42:27.680Z,18.64
2022-08-17T18:44:55.513Z,18.62
2022-08-17T18:47:26.600Z,18.33
2022-08-17T18:49:58.454Z,18.12
2022-08-17T18:52:27.869Z,17.95
2022-08-17T18:55:06.221Z,17.77
2022-08-17T18:57:35.096Z,17.61
2022-08-17T19:00:09.696Z,17.47
2022-08-17T19:02:49.435Z,17.35
2022-08-17T19:05:36.206Z,17.28
2022-08-17T19:11:10.129Z,17.00
2022-08-17T19:13:51.497Z,16.99
2022-08-17T19:16:24.127Z,16.91
2022-08-17T19:18:59.693Z,16.79
2022-08-17T19:21:37.625Z,16.76
2022-08-17T19:24:06.869Z,16.70
2022-08-17T19:26:54.160Z,16.60
2022-08-17T19:29:28.859Z,16.68
2022-08-17T19:32:00.896Z,16.61
2022-08-17T19:34:34.148Z,16.58
2022-08-17T19:37:20.778Z,16.44
2022-08-17T19:39:50.431Z,16.32
2022-08-17T19:42:31.050Z,16.23
2022-08-17T19:45:00.563Z,16.19
2022-08-17T19:47:53.385Z,16.16
2022-08-17T19:50:39.154Z,16.13
2022-08-17T19:53:20.214Z,16.08
2022-08-17T19:55:52.823Z,16.08
2022-08-17T19:58:28.481Z,16.08
2022-08-17T20:00:55.416Z,16.09
2022-08-17T20:03:24.676Z,16.09
2022-08-17T20:06:13.782Z,16.07
2022-08-17T20:08:45.653Z,16.07
2022-08-17T20:11:24.816Z,16.10
2022-08-17T20:14:00.159Z,16.07
2022-08-17T20:16:26.788Z,16.07
2022-08-17T20:19:01.434Z,16.05
2022-08-17T20:21:41.831Z,16.06
2022-08-17T20:24:25.707Z,16.05
2022-08-17T20:27:00.943Z,16.05
2022-08-17T20:29:39.880Z,16.07
2022-08-17T20:32:16.308Z,16.10
2022-08-17T20:34:45.077Z,16.08
2022-08-17T20:37:14.632Z,16.08
2022-08-17T20:39:50.242Z,16.09
2022-08-17T20:42:19.763Z,16.09
2022-08-17T20:44:47.098Z,16.13
2022-08-17T20:47:25.015Z,16.08
2022-08-17T20:49:57.274Z,16.10
2022-08-17T20:52:35.748Z,16.07
2022-08-17T20:55:03.158Z,16.05
2022-08-17T20:57:32.681Z,15.97
2022-08-17T20:59:59.458Z,15.94
2022-08-17T21:02:26.899Z,15.95
2022-08-17T21:04:54.577Z,15.92
2022-08-17T21:07:24.578Z,15.90
2022-08-17T21:09:51.319Z,15.89
2022-08-17T21:12:36.869Z,15.89
2022-08-17T21:15:07.077Z,15.88
2022-08-17T21:17:43.517Z,15.87
2022-08-17T21:20:23.216Z,15.89
2022-08-17T21:23:09.998Z,15.86
2022-08-17T21:25:48.931Z,15.86
2022-08-17T21:28:20.215Z,15.86
2022-08-17T21:30:54.782Z,15.82
2022-08-17T21:33:27.490Z,15.87
2022-08-17T21:36:00.335Z,15.87
2022-08-17T21:38:36.215Z,15.89
2022-08-17T21:41:02.821Z,15.92
2022-08-17T21:43:32.485Z,15.94
2022-08-17T21:46:10.654Z,15.94
2022-08-17T21:48:45.043Z,15.91
2022-08-17T21:51:24.024Z,15.95
2022-08-17T21:53:52.189Z,15.93
2022-08-17T21:56:24.803Z,15.89
2022-08-17T21:58:57.404Z,15.90
2022-08-17T22:01:26.516Z,15.89
2022-08-17T22:03:59.572Z,15.83
2022-08-17T22:06:28.280Z,15.86
2022-08-17T22:08:59.348Z,15.79
2022-08-17T22:11:25.904Z,15.82
2022-08-17T22:13:52.419Z,15.87
2022-08-17T22:16:28.702Z,15.87
2022-08-17T22:18:58.145Z,15.85
2022-08-17T22:21:25.249Z,15.87
2022-08-17T22:24:04.917Z,15.79
2022-08-17T22:26:50.124Z,15.74
2022-08-17T22:29:35.434Z,15.79
2022-08-17T22:32:01.908Z,15.78
2022-08-17T22:34:28.359Z,15.80
2022-08-17T22:37:21.236Z,15.78
2022-08-17T22:39:58.090Z,15.78
2022-08-17T22:42:24.658Z,15.74
2022-08-17T22:44:51.711Z,15.73
2022-08-17T22:47:18.998Z,15.71
2022-08-17T22:49:53.433Z,15.69
2022-08-17T22:52:32.302Z,15.75
2022-08-17T22:58:03.513Z,15.69
